sensor_id;sensor_type;location;lat;lon;timestamp;P1;durP1;ratioP1;P2;durP2;ratioP2
20012;SDS011;76844;42.852;23.042;2024-03-23T00:56:07;25.55;;;14.23;;
20012;SDS011;76844;42.852;23.042;2024-03-23T00:58:34;31.40;;;16.55;;
20012;SDS011;76844;42.852;23.042;2024-03-23T01:01:02;24.95;;;14.07;;
20012;SDS011;76844;42.852;23.042;2024-03-23T01:03:29;20.17;;;11.25;;
20012;SDS011;76844;42.852;23.042;2024-03-23T01:05:59;40.05;;;21.15;;
20012;SDS011;76844;42.852;23.042;2024-03-23T01:08:26;23.52;;;13.05;;
20012;SDS011;76844;42.852;23.042;2024-03-23T01:10:55;21.58;;;10.60;;
20012;SDS011;76844;42.852;23.042;2024-03-23T01:13:23;17.48;;;9.80;;
20012;SDS011;76844;42.852;23.042;2024-03-23T01:15:53;13.75;;;8.73;;
20012;SDS011;76844;42.852;23.042;2024-03-23T01:18:21;14.15;;;8.93;;
20012;SDS011;76844;42.852;23.042;2024-03-23T01:20:50;16.02;;;9.05;;
20012;SDS011;76844;42.852;23.042;2024-03-23T01:23:18;16.38;;;9.93;;
20012;SDS011;76844;42.852;23.042;2024-03-23T01:25:51;22.75;;;11.95;;
20012;SDS011;76844;42.852;23.042;2024-03-23T01:28:19;17.85;;;9.77;;
20012;SDS011;76844;42.852;23.042;2024-03-23T01:30:49;19.35;;;11.40;;
20012;SDS011;76844;42.852;23.042;2024-03-23T01:33:17;19.98;;;10.57;;
20012;SDS011;76844;42.852;23.042;2024-03-23T01:35:45;17.42;;;9.68;;
20012;SDS011;76844;42.852;23.042;2024-03-23T01:38:14;17.88;;;9.18;;
20012;SDS011;76844;42.852;23.042;2024-03-23T01:40:42;16.90;;;9.85;;
20012;SDS011;76844;42.852;23.042;2024-03-23T01:43:10;21.25;;;10.63;;
20012;SDS011;76844;42.852;23.042;2024-03-23T01:45:38;15.18;;;8.80;;
20012;SDS011;76844;42.852;23.042;2024-03-23T01:48:07;15.07;;;8.48;;
20012;SDS011;76844;42.852;23.042;2024-03-23T01:50:38;15.75;;;7.68;;
20012;SDS011;76844;42.852;23.042;2024-03-23T01:53:05;13.95;;;7.93;;
20012;SDS011;76844;42.852;23.042;2024-03-23T01:55:34;15.32;;;8.73;;
20012;SDS011;76844;42.852;23.042;2024-03-23T01:58:05;14.70;;;8.13;;
20012;SDS011;76844;42.852;23.042;2024-03-23T02:00:36;14.05;;;8.32;;
20012;SDS011;76844;42.852;23.042;2024-03-23T02:03:15;13.90;;;8.18;;
20012;SDS011;76844;42.852;23.042;2024-03-23T02:05:50;12.23;;;6.88;;
20012;SDS011;76844;42.852;23.042;2024-03-23T02:08:19;11.25;;;7.25;;
20012;SDS011;76844;42.852;23.042;2024-03-23T02:10:49;13.75;;;7.97;;
20012;SDS011;76844;42.852;23.042;2024-03-23T02:13:19;14.85;;;8.45;;
20012;SDS011;76844;42.852;23.042;2024-03-23T02:15:47;14.25;;;8.52;;
20012;SDS011;76844;42.852;23.042;2024-03-23T02:18:16;17.23;;;9.60;;
20012;SDS011;76844;42.852;23.042;2024-03-23T02:20:45;15.20;;;9.02;;
20012;SDS011;76844;42.852;23.042;2024-03-23T02:23:16;14.45;;;8.38;;
20012;SDS011;76844;42.852;23.042;2024-03-23T02:25:45;21.45;;;13.65;;
20012;SDS011;76844;42.852;23.042;2024-03-23T02:28:12;17.50;;;10.73;;
20012;SDS011;76844;42.852;23.042;2024-03-23T02:30:40;15.70;;;10.05;;
20012;SDS011;76844;42.852;23.042;2024-03-23T02:33:08;14.15;;;8.82;;
20012;SDS011;76844;42.852;23.042;2024-03-23T02:35:36;13.88;;;8.20;;
20012;SDS011;76844;42.852;23.042;2024-03-23T02:38:03;16.48;;;9.38;;
20012;SDS011;76844;42.852;23.042;2024-03-23T02:40:33;18.40;;;10.85;;
20012;SDS011;76844;42.852;23.042;2024-03-23T02:43:00;17.05;;;9.20;;
20012;SDS011;76844;42.852;23.042;2024-03-23T02:45:28;16.45;;;9.38;;
20012;SDS011;76844;42.852;23.042;2024-03-23T02:47:56;14.43;;;8.95;;
20012;SDS011;76844;42.852;23.042;2024-03-23T02:50:24;15.50;;;8.05;;
20012;SDS011;76844;42.852;23.042;2024-03-23T02:52:51;16.42;;;9.77;;
20012;SDS011;76844;42.852;23.042;2024-03-23T02:55:19;18.65;;;10.70;;
20012;SDS011;76844;42.852;23.042;2024-03-23T02:57:48;22.13;;;10.95;;
20012;SDS011;76844;42.852;23.042;2024-03-23T03:00:17;17.92;;;10.82;;
20012;SDS011;76844;42.852;23.042;2024-03-23T03:02:45;14.77;;;9.55;;
20012;SDS011;76844;42.852;23.042;2024-03-23T03:05:13;19.55;;;10.95;;
20012;SDS011;76844;42.852;23.042;2024-03-23T03:07:40;16.10;;;9.95;;
20012;SDS011;76844;42.852;23.042;2024-03-23T03:10:09;16.00;;;10.10;;
20012;SDS011;76844;42.852;23.042;2024-03-23T03:12:37;21.20;;;11.93;;
20012;SDS011;76844;42.852;23.042;2024-03-23T03:15:08;19.20;;;11.75;;
20012;SDS011;76844;42.852;23.042;2024-03-23T03:17:35;18.27;;;11.35;;
20012;SDS011;76844;42.852;23.042;2024-03-23T03:20:04;19.65;;;12.05;;
20012;SDS011;76844;42.852;23.042;2024-03-23T03:22:32;23.35;;;11.90;;
20012;SDS011;76844;42.852;23.042;2024-03-23T03:25:01;17.85;;;10.13;;
20012;SDS011;76844;42.852;23.042;2024-03-23T03:27:30;21.38;;;11.90;;
20012;SDS011;76844;42.852;23.042;2024-03-23T03:29:58;16.92;;;9.85;;
20012;SDS011;76844;42.852;23.042;2024-03-23T03:32:31;17.63;;;10.07;;
20012;SDS011;76844;42.852;23.042;2024-03-23T03:35:00;16.77;;;9.70;;
20012;SDS011;76844;42.852;23.042;2024-03-23T03:37:29;15.25;;;8.95;;
20012;SDS011;76844;42.852;23.042;2024-03-23T03:39:58;12.98;;;8.07;;
20012;SDS011;76844;42.852;23.042;2024-03-23T03:42:25;12.90;;;8.18;;
20012;SDS011;76844;42.852;23.042;2024-03-23T03:44:53;13.57;;;7.97;;
20012;SDS011;76844;42.852;23.042;2024-03-23T03:47:20;18.50;;;10.15;;
20012;SDS011;76844;42.852;23.042;2024-03-23T03:49:50;12.23;;;7.25;;
20012;SDS011;76844;42.852;23.042;2024-03-23T03:52:18;11.68;;;6.97;;
20012;SDS011;76844;42.852;23.042;2024-03-23T03:54:46;13.80;;;7.53;;
20012;SDS011;76844;42.852;23.042;2024-03-23T03:57:13;14.57;;;8.27;;
20012;SDS011;76844;42.852;23.042;2024-03-23T03:59:41;18.67;;;9.50;;
20012;SDS011;76844;42.852;23.042;2024-03-23T04:02:08;16.58;;;9.02;;
20012;SDS011;76844;42.852;23.042;2024-03-23T04:04:37;15.15;;;8.23;;
20012;SDS011;76844;42.852;23.042;2024-03-23T04:07:05;17.40;;;9.75;;
20012;SDS011;76844;42.852;23.042;2024-03-23T04:09:34;17.77;;;8.57;;
20012;SDS011;76844;42.852;23.042;2024-03-23T04:12:01;17.23;;;9.32;;
20012;SDS011;76844;42.852;23.042;2024-03-23T04:14:30;18.95;;;10.15;;
20012;SDS011;76844;42.852;23.042;2024-03-23T04:16:58;19.38;;;9.77;;
20012;SDS011;76844;42.852;23.042;2024-03-23T04:19:27;15.38;;;9.23;;
20012;SDS011;76844;42.852;23.042;2024-03-23T04:21:54;15.48;;;9.25;;
20012;SDS011;76844;42.852;23.042;2024-03-23T04:24:24;18.42;;;10.20;;
20012;SDS011;76844;42.852;23.042;2024-03-23T04:26:55;19.33;;;9.48;;
20012;SDS011;76844;42.852;23.042;2024-03-23T04:29:24;17.92;;;9.38;;
20012;SDS011;76844;42.852;23.042;2024-03-23T04:31:52;32.75;;;15.40;;
20012;SDS011;76844;42.852;23.042;2024-03-23T04:34:21;30.42;;;11.82;;
20012;SDS011;76844;42.852;23.042;2024-03-23T04:36:49;27.20;;;12.10;;
20012;SDS011;76844;42.852;23.042;2024-03-23T04:39:17;18.90;;;9.75;;
20012;SDS011;76844;42.852;23.042;2024-03-23T04:41:47;16.42;;;8.68;;
20012;SDS011;76844;42.852;23.042;2024-03-23T04:44:16;14.10;;;8.18;;
20012;SDS011;76844;42.852;23.042;2024-03-23T04:46:44;16.38;;;9.20;;
20012;SDS011;76844;42.852;23.042;2024-03-23T04:49:13;16.67;;;8.80;;
20012;SDS011;76844;42.852;23.042;2024-03-23T04:51:41;25.38;;;10.13;;
20012;SDS011;76844;42.852;23.042;2024-03-23T04:54:12;15.43;;;8.38;;
20012;SDS011;76844;42.852;23.042;2024-03-23T04:56:40;21.33;;;9.73;;
20012;SDS011;76844;42.852;23.042;2024-03-23T04:59:09;19.95;;;9.63;;
20012;SDS011;76844;42.852;23.042;2024-03-23T05:01:38;20.10;;;10.55;;
20012;SDS011;76844;42.852;23.042;2024-03-23T05:04:09;19.08;;;9.10;;
20012;SDS011;76844;42.852;23.042;2024-03-23T05:06:38;14.20;;;8.52;;
20012;SDS011;76844;42.852;23.042;2024-03-23T05:09:05;13.50;;;7.85;;
20012;SDS011;76844;42.852;23.042;2024-03-23T05:11:33;14.75;;;8.80;;
20012;SDS011;76844;42.852;23.042;2024-03-23T05:14:01;14.50;;;8.98;;
20012;SDS011;76844;42.852;23.042;2024-03-23T05:16:31;13.93;;;8.65;;
20012;SDS011;76844;42.852;23.042;2024-03-23T05:18:58;16.67;;;10.00;;
20012;SDS011;76844;42.852;23.042;2024-03-23T05:21:27;15.75;;;9.32;;
20012;SDS011;76844;42.852;23.042;2024-03-23T05:23:54;17.98;;;10.38;;
20012;SDS011;76844;42.852;23.042;2024-03-23T05:26:23;21.48;;;10.88;;
20012;SDS011;76844;42.852;23.042;2024-03-23T05:28:50;20.77;;;11.80;;
20012;SDS011;76844;42.852;23.042;2024-03-23T05:31:25;23.85;;;11.95;;
20012;SDS011;76844;42.852;23.042;2024-03-23T05:33:54;24.70;;;11.82;;
20012;SDS011;76844;42.852;23.042;2024-03-23T05:36:22;15.70;;;9.55;;
20012;SDS011;76844;42.852;23.042;2024-03-23T05:38:50;16.75;;;9.02;;
20012;SDS011;76844;42.852;23.042;2024-03-23T05:41:18;14.65;;;9.30;;
20012;SDS011;76844;42.852;23.042;2024-03-23T05:43:46;19.38;;;9.32;;
20012;SDS011;76844;42.852;23.042;2024-03-23T05:46:14;12.18;;;7.65;;
20012;SDS011;76844;42.852;23.042;2024-03-23T05:48:43;13.50;;;8.30;;
20012;SDS011;76844;42.852;23.042;2024-03-23T05:51:12;15.18;;;9.68;;
20012;SDS011;76844;42.852;23.042;2024-03-23T05:53:40;17.08;;;8.27;;
20012;SDS011;76844;42.852;23.042;2024-03-23T05:56:09;13.68;;;8.82;;
20012;SDS011;76844;42.852;23.042;2024-03-23T05:58:36;15.55;;;8.23;;
20012;SDS011;76844;42.852;23.042;2024-03-23T06:01:05;18.08;;;8.45;;
20012;SDS011;76844;42.852;23.042;2024-03-23T06:03:33;18.38;;;10.52;;
20012;SDS011;76844;42.852;23.042;2024-03-23T06:06:02;17.83;;;9.48;;
20012;SDS011;76844;42.852;23.042;2024-03-23T06:08:32;23.95;;;12.15;;
20012;SDS011;76844;42.852;23.042;2024-03-23T06:11:04;25.35;;;13.02;;
20012;SDS011;76844;42.852;23.042;2024-03-23T06:13:32;25.10;;;12.98;;
20012;SDS011;76844;42.852;23.042;2024-03-23T06:16:01;27.23;;;14.13;;
20012;SDS011;76844;42.852;23.042;2024-03-23T06:18:29;35.22;;;16.67;;
20012;SDS011;76844;42.852;23.042;2024-03-23T06:20:58;36.08;;;19.23;;
20012;SDS011;76844;42.852;23.042;2024-03-23T06:23:26;45.40;;;20.95;;
20012;SDS011;76844;42.852;23.042;2024-03-23T06:25:56;33.30;;;16.15;;
20012;SDS011;76844;42.852;23.042;2024-03-23T06:28:24;39.80;;;16.52;;
20012;SDS011;76844;42.852;23.042;2024-03-23T06:30:53;43.97;;;15.68;;
20012;SDS011;76844;42.852;23.042;2024-03-23T06:33:20;51.35;;;18.75;;
20012;SDS011;76844;42.852;23.042;2024-03-23T06:35:50;44.17;;;18.15;;
20012;SDS011;76844;42.852;23.042;2024-03-23T06:38:19;67.45;;;27.88;;
20012;SDS011;76844;42.852;23.042;2024-03-23T06:40:48;51.33;;;15.63;;
20012;SDS011;76844;42.852;23.042;2024-03-23T06:43:18;32.33;;;12.40;;
20012;SDS011;76844;42.852;23.042;2024-03-23T06:45:52;27.23;;;10.93;;
20012;SDS011;76844;42.852;23.042;2024-03-23T06:48:20;24.50;;;11.13;;
20012;SDS011;76844;42.852;23.042;2024-03-23T06:50:49;40.40;;;16.92;;
20012;SDS011;76844;42.852;23.042;2024-03-23T06:55:50;26.58;;;11.18;;
20012;SDS011;76844;42.852;23.042;2024-03-23T06:58:21;28.80;;;11.75;;
20012;SDS011;76844;42.852;23.042;2024-03-23T07:00:50;29.08;;;12.13;;
20012;SDS011;76844;42.852;23.042;2024-03-23T07:03:17;32.83;;;12.88;;
20012;SDS011;76844;42.852;23.042;2024-03-23T07:05:48;31.92;;;13.05;;
20012;SDS011;76844;42.852;23.042;2024-03-23T07:08:15;30.23;;;12.48;;
20012;SDS011;76844;42.852;23.042;2024-03-23T07:10:47;21.00;;;11.10;;
20012;SDS011;76844;42.852;23.042;2024-03-23T07:13:15;28.48;;;11.85;;
20012;SDS011;76844;42.852;23.042;2024-03-23T07:15:52;30.98;;;12.43;;
20012;SDS011;76844;42.852;23.042;2024-03-23T07:18:21;25.67;;;10.27;;
20012;SDS011;76844;42.852;23.042;2024-03-23T07:20:54;21.52;;;9.95;;
20012;SDS011;76844;42.852;23.042;2024-03-23T07:23:22;30.77;;;11.70;;
20012;SDS011;76844;42.852;23.042;2024-03-23T07:25:57;26.25;;;12.73;;
20012;SDS011;76844;42.852;23.042;2024-03-23T07:31:05;26.83;;;10.48;;
20012;SDS011;76844;42.852;23.042;2024-03-23T07:33:35;30.58;;;11.93;;
20012;SDS011;76844;42.852;23.042;2024-03-23T07:36:04;29.83;;;11.30;;
20012;SDS011;76844;42.852;23.042;2024-03-23T07:38:35;22.67;;;10.10;;
20012;SDS011;76844;42.852;23.042;2024-03-23T07:41:03;30.25;;;13.23;;
20012;SDS011;76844;42.852;23.042;2024-03-23T07:43:32;25.45;;;10.48;;
20012;SDS011;76844;42.852;23.042;2024-03-23T07:45:59;21.45;;;9.40;;
20012;SDS011;76844;42.852;23.042;2024-03-23T07:48:31;28.80;;;11.65;;
20012;SDS011;76844;42.852;23.042;2024-03-23T07:51:00;24.38;;;9.40;;
20012;SDS011;76844;42.852;23.042;2024-03-23T07:53:29;22.05;;;8.98;;
20012;SDS011;76844;42.852;23.042;2024-03-23T07:55:57;21.08;;;10.07;;
20012;SDS011;76844;42.852;23.042;2024-03-23T07:58:27;24.48;;;9.23;;
20012;SDS011;76844;42.852;23.042;2024-03-23T08:00:56;18.77;;;10.27;;
20012;SDS011;76844;42.852;23.042;2024-03-23T08:03:32;18.70;;;9.80;;
20012;SDS011;76844;42.852;23.042;2024-03-23T08:06:06;16.75;;;9.90;;
20012;SDS011;76844;42.852;23.042;2024-03-23T08:08:36;23.10;;;10.48;;
20012;SDS011;76844;42.852;23.042;2024-03-23T08:11:05;21.65;;;10.48;;
20012;SDS011;76844;42.852;23.042;2024-03-23T08:13:34;21.95;;;9.35;;
20012;SDS011;76844;42.852;23.042;2024-03-23T08:16:02;17.20;;;8.85;;
20012;SDS011;76844;42.852;23.042;2024-03-23T08:18:33;20.25;;;10.30;;
20012;SDS011;76844;42.852;23.042;2024-03-23T08:21:02;17.02;;;8.95;;
20012;SDS011;76844;42.852;23.042;2024-03-23T08:23:32;26.02;;;10.88;;
20012;SDS011;76844;42.852;23.042;2024-03-23T08:26:03;17.10;;;9.85;;
20012;SDS011;76844;42.852;23.042;2024-03-23T08:28:33;19.05;;;9.65;;
20012;SDS011;76844;42.852;23.042;2024-03-23T08:31:01;22.17;;;9.73;;
20012;SDS011;76844;42.852;23.042;2024-03-23T08:33:34;13.88;;;9.23;;
20012;SDS011;76844;42.852;23.042;2024-03-23T08:36:04;25.00;;;9.80;;
20012;SDS011;76844;42.852;23.042;2024-03-23T08:38:34;15.48;;;9.00;;
20012;SDS011;76844;42.852;23.042;2024-03-23T08:41:02;17.35;;;9.20;;
20012;SDS011;76844;42.852;23.042;2024-03-23T08:43:33;11.55;;;8.18;;
20012;SDS011;76844;42.852;23.042;2024-03-23T08:46:03;14.27;;;8.13;;
20012;SDS011;76844;42.852;23.042;2024-03-23T08:48:34;16.92;;;7.82;;
20012;SDS011;76844;42.852;23.042;2024-03-23T08:51:02;12.52;;;7.70;;
20012;SDS011;76844;42.852;23.042;2024-03-23T08:53:32;14.98;;;8.23;;
20012;SDS011;76844;42.852;23.042;2024-03-23T08:56:00;10.55;;;7.88;;
20012;SDS011;76844;42.852;23.042;2024-03-23T08:58:30;18.00;;;8.75;;
20012;SDS011;76844;42.852;23.042;2024-03-23T09:01:02;17.95;;;7.47;;
20012;SDS011;76844;42.852;23.042;2024-03-23T09:03:34;11.27;;;7.30;;
20012;SDS011;76844;42.852;23.042;2024-03-23T09:06:02;12.07;;;6.78;;
20012;SDS011;76844;42.852;23.042;2024-03-23T09:08:34;29.20;;;9.80;;
20012;SDS011;76844;42.852;23.042;2024-03-23T09:11:03;17.30;;;7.55;;
20012;SDS011;76844;42.852;23.042;2024-03-23T09:13:34;10.55;;;6.90;;
20012;SDS011;76844;42.852;23.042;2024-03-23T09:16:03;13.07;;;6.97;;
20012;SDS011;76844;42.852;23.042;2024-03-23T09:18:36;13.95;;;6.88;;
20012;SDS011;76844;42.852;23.042;2024-03-23T09:21:10;10.53;;;6.93;;
20012;SDS011;76844;42.852;23.042;2024-03-23T09:23:42;10.23;;;6.40;;
20012;SDS011;76844;42.852;23.042;2024-03-23T09:26:11;10.50;;;6.22;;
20012;SDS011;76844;42.852;23.042;2024-03-23T09:28:39;11.60;;;5.80;;
20012;SDS011;76844;42.852;23.042;2024-03-23T09:31:07;11.45;;;5.80;;
20012;SDS011;76844;42.852;23.042;2024-03-23T09:33:42;12.23;;;6.40;;
20012;SDS011;76844;42.852;23.042;2024-03-23T09:36:09;12.52;;;5.95;;
20012;SDS011;76844;42.852;23.042;2024-03-23T09:38:38;8.93;;;5.13;;
20012;SDS011;76844;42.852;23.042;2024-03-23T09:41:07;11.20;;;5.70;;
20012;SDS011;76844;42.852;23.042;2024-03-23T09:43:37;9.98;;;5.47;;
20012;SDS011;76844;42.852;23.042;2024-03-23T09:46:04;16.05;;;6.78;;
20012;SDS011;76844;42.852;23.042;2024-03-23T09:48:35;9.18;;;5.43;;
20012;SDS011;76844;42.852;23.042;2024-03-23T09:51:05;12.45;;;5.80;;
20012;SDS011;76844;42.852;23.042;2024-03-23T09:53:36;9.57;;;4.93;;
20012;SDS011;76844;42.852;23.042;2024-03-23T09:56:04;7.82;;;5.60;;
20012;SDS011;76844;42.852;23.042;2024-03-23T09:58:33;8.45;;;4.35;;
20012;SDS011;76844;42.852;23.042;2024-03-23T10:01:01;6.60;;;4.07;;
20012;SDS011;76844;42.852;23.042;2024-03-23T10:03:30;5.80;;;3.92;;
20012;SDS011;76844;42.852;23.042;2024-03-23T10:06:00;4.72;;;3.88;;
20012;SDS011;76844;42.852;23.042;2024-03-23T10:08:32;4.78;;;3.65;;
20012;SDS011;76844;42.852;23.042;2024-03-23T10:10:59;3.72;;;3.25;;
20012;SDS011;76844;42.852;23.042;2024-03-23T10:13:42;5.85;;;3.80;;
20012;SDS011;76844;42.852;23.042;2024-03-23T10:16:10;4.97;;;3.80;;
20012;SDS011;76844;42.852;23.042;2024-03-23T10:18:39;5.30;;;3.83;;
20012;SDS011;76844;42.852;23.042;2024-03-23T10:21:07;5.25;;;4.07;;
20012;SDS011;76844;42.852;23.042;2024-03-23T10:23:40;11.02;;;4.40;;
20012;SDS011;76844;42.852;23.042;2024-03-23T10:26:15;9.43;;;3.70;;
20012;SDS011;76844;42.852;23.042;2024-03-23T10:28:51;5.32;;;3.50;;
20012;SDS011;76844;42.852;23.042;2024-03-23T10:31:20;7.57;;;3.95;;
20012;SDS011;76844;42.852;23.042;2024-03-23T10:33:49;6.68;;;3.60;;
20012;SDS011;76844;42.852;23.042;2024-03-23T10:36:16;8.90;;;3.72;;
20012;SDS011;76844;42.852;23.042;2024-03-23T10:38:49;7.75;;;4.15;;
20012;SDS011;76844;42.852;23.042;2024-03-23T10:41:17;5.72;;;4.50;;
20012;SDS011;76844;42.852;23.042;2024-03-23T10:43:46;6.53;;;3.85;;
20012;SDS011;76844;42.852;23.042;2024-03-23T10:46:14;7.03;;;3.90;;
20012;SDS011;76844;42.852;23.042;2024-03-23T10:48:43;6.93;;;3.83;;
20012;SDS011;76844;42.852;23.042;2024-03-23T10:51:11;4.47;;;3.22;;
20012;SDS011;76844;42.852;23.042;2024-03-23T10:53:41;8.05;;;3.80;;
20012;SDS011;76844;42.852;23.042;2024-03-23T10:56:10;4.80;;;3.60;;
20012;SDS011;76844;42.852;23.042;2024-03-23T10:58:41;8.38;;;4.30;;
20012;SDS011;76844;42.852;23.042;2024-03-23T11:01:11;5.72;;;3.88;;
20012;SDS011;76844;42.852;23.042;2024-03-23T11:03:44;9.48;;;3.72;;
20012;SDS011;76844;42.852;23.042;2024-03-23T11:06:33;5.32;;;3.80;;
20012;SDS011;76844;42.852;23.042;2024-03-23T11:09:03;6.32;;;3.67;;
20012;SDS011;76844;42.852;23.042;2024-03-23T11:11:52;4.18;;;3.78;;
20012;SDS011;76844;42.852;23.042;2024-03-23T11:14:22;5.75;;;3.67;;
20012;SDS011;76844;42.852;23.042;2024-03-23T11:16:53;5.32;;;3.65;;
20012;SDS011;76844;42.852;23.042;2024-03-23T11:19:37;7.90;;;3.90;;
20012;SDS011;76844;42.852;23.042;2024-03-23T11:22:04;4.82;;;3.65;;
20012;SDS011;76844;42.852;23.042;2024-03-23T11:24:34;5.85;;;3.83;;
20012;SDS011;76844;42.852;23.042;2024-03-23T11:27:04;6.63;;;4.28;;
20012;SDS011;76844;42.852;23.042;2024-03-23T11:29:43;8.43;;;3.70;;
20012;SDS011;76844;42.852;23.042;2024-03-23T11:32:11;9.48;;;4.13;;
20012;SDS011;76844;42.852;23.042;2024-03-23T11:34:41;5.13;;;4.15;;
20012;SDS011;76844;42.852;23.042;2024-03-23T11:37:08;6.43;;;4.03;;
20012;SDS011;76844;42.852;23.042;2024-03-23T11:39:37;5.50;;;3.67;;
20012;SDS011;76844;42.852;23.042;2024-03-23T11:42:06;5.75;;;3.95;;
20012;SDS011;76844;42.852;23.042;2024-03-23T11:44:34;4.75;;;4.05;;
20012;SDS011;76844;42.852;23.042;2024-03-23T11:47:07;9.15;;;4.10;;
20012;SDS011;76844;42.852;23.042;2024-03-23T11:49:37;6.63;;;3.90;;
20012;SDS011;76844;42.852;23.042;2024-03-23T11:52:07;4.97;;;3.60;;
20012;SDS011;76844;42.852;23.042;2024-03-23T11:54:35;7.45;;;3.97;;
20012;SDS011;76844;42.852;23.042;2024-03-23T11:57:08;9.85;;;4.15;;
20012;SDS011;76844;42.852;23.042;2024-03-23T11:59:38;10.00;;;4.03;;
20012;SDS011;76844;42.852;23.042;2024-03-23T12:02:06;29.20;;;5.13;;
20012;SDS011;76844;42.852;23.042;2024-03-23T12:04:36;4.60;;;3.17;;
20012;SDS011;76844;42.852;23.042;2024-03-23T12:07:10;4.07;;;3.63;;
20012;SDS011;76844;42.852;23.042;2024-03-23T12:09:40;5.15;;;3.40;;
20012;SDS011;76844;42.852;23.042;2024-03-23T12:12:10;6.40;;;3.50;;
20012;SDS011;76844;42.852;23.042;2024-03-23T12:14:42;6.53;;;4.50;;
20012;SDS011;76844;42.852;23.042;2024-03-23T12:17:10;6.38;;;4.20;;
20012;SDS011;76844;42.852;23.042;2024-03-23T12:19:41;5.72;;;3.40;;
20012;SDS011;76844;42.852;23.042;2024-03-23T12:22:12;5.03;;;3.83;;
20012;SDS011;76844;42.852;23.042;2024-03-23T12:24:40;12.82;;;4.72;;
20012;SDS011;76844;42.852;23.042;2024-03-23T12:27:13;4.20;;;3.60;;
20012;SDS011;76844;42.852;23.042;2024-03-23T12:29:41;7.03;;;4.03;;
20012;SDS011;76844;42.852;23.042;2024-03-23T12:32:10;5.55;;;3.13;;
20012;SDS011;76844;42.852;23.042;2024-03-23T12:34:38;4.18;;;3.30;;
20012;SDS011;76844;42.852;23.042;2024-03-23T12:37:06;4.93;;;3.90;;
20012;SDS011;76844;42.852;23.042;2024-03-23T12:39:35;5.72;;;3.80;;
20012;SDS011;76844;42.852;23.042;2024-03-23T12:42:03;4.60;;;3.63;;
20012;SDS011;76844;42.852;23.042;2024-03-23T12:44:33;7.28;;;3.63;;
20012;SDS011;76844;42.852;23.042;2024-03-23T12:47:01;7.07;;;3.63;;
20012;SDS011;76844;42.852;23.042;2024-03-23T12:49:31;8.05;;;3.92;;
20012;SDS011;76844;42.852;23.042;2024-03-23T12:51:58;6.93;;;3.80;;
20012;SDS011;76844;42.852;23.042;2024-03-23T12:54:27;9.50;;;3.40;;
20012;SDS011;76844;42.852;23.042;2024-03-23T12:56:56;7.25;;;3.58;;
20012;SDS011;76844;42.852;23.042;2024-03-23T12:59:25;10.35;;;6.68;;
20012;SDS011;76844;42.852;23.042;2024-03-23T13:01:56;7.32;;;4.72;;
20012;SDS011;76844;42.852;23.042;2024-03-23T13:04:24;4.13;;;3.63;;
20012;SDS011;76844;42.852;23.042;2024-03-23T13:06:52;4.70;;;3.65;;
20012;SDS011;76844;42.852;23.042;2024-03-23T13:09:20;7.15;;;4.47;;
20012;SDS011;76844;42.852;23.042;2024-03-23T13:11:48;5.53;;;3.70;;
20012;SDS011;76844;42.852;23.042;2024-03-23T13:14:17;3.80;;;3.38;;
20012;SDS011;76844;42.852;23.042;2024-03-23T13:16:46;5.25;;;3.50;;
20012;SDS011;76844;42.852;23.042;2024-03-23T13:19:16;7.78;;;3.90;;
20012;SDS011;76844;42.852;23.042;2024-03-23T13:21:50;4.22;;;3.60;;
20012;SDS011;76844;42.852;23.042;2024-03-23T13:24:18;4.90;;;3.30;;
20012;SDS011;76844;42.852;23.042;2024-03-23T13:26:50;4.60;;;3.25;;
20012;SDS011;76844;42.852;23.042;2024-03-23T13:29:19;3.45;;;2.92;;
20012;SDS011;76844;42.852;23.042;2024-03-23T13:31:48;5.22;;;3.45;;
20012;SDS011;76844;42.852;23.042;2024-03-23T13:34:18;5.53;;;3.45;;
20012;SDS011;76844;42.852;23.042;2024-03-23T13:36:47;9.35;;;3.78;;
20012;SDS011;76844;42.852;23.042;2024-03-23T13:39:15;7.20;;;4.30;;
20012;SDS011;76844;42.852;23.042;2024-03-23T13:41:44;4.80;;;3.92;;
20012;SDS011;76844;42.852;23.042;2024-03-23T13:44:12;3.85;;;3.22;;
20012;SDS011;76844;42.852;23.042;2024-03-23T13:46:42;5.65;;;4.20;;
20012;SDS011;76844;42.852;23.042;2024-03-23T13:49:11;6.85;;;4.05;;
20012;SDS011;76844;42.852;23.042;2024-03-23T13:51:54;7.40;;;4.20;;
20012;SDS011;76844;42.852;23.042;2024-03-23T13:54:23;5.03;;;3.92;;
20012;SDS011;76844;42.852;23.042;2024-03-23T13:56:53;10.95;;;4.25;;
20012;SDS011;76844;42.852;23.042;2024-03-23T13:59:22;6.57;;;3.63;;
20012;SDS011;76844;42.852;23.042;2024-03-23T14:01:50;5.25;;;3.78;;
20012;SDS011;76844;42.852;23.042;2024-03-23T14:04:18;8.85;;;4.65;;
20012;SDS011;76844;42.852;23.042;2024-03-23T14:06:49;7.65;;;3.95;;
20012;SDS011;76844;42.852;23.042;2024-03-23T14:09:16;6.25;;;4.30;;
20012;SDS011;76844;42.852;23.042;2024-03-23T14:11:47;6.53;;;3.90;;
20012;SDS011;76844;42.852;23.042;2024-03-23T14:14:15;5.13;;;4.03;;
20012;SDS011;76844;42.852;23.042;2024-03-23T14:16:44;5.45;;;3.83;;
20012;SDS011;76844;42.852;23.042;2024-03-23T14:19:12;8.02;;;4.00;;
20012;SDS011;76844;42.852;23.042;2024-03-23T14:21:41;6.05;;;3.92;;
20012;SDS011;76844;42.852;23.042;2024-03-23T14:24:09;5.15;;;3.88;;
20012;SDS011;76844;42.852;23.042;2024-03-23T14:26:38;5.25;;;3.90;;
20012;SDS011;76844;42.852;23.042;2024-03-23T14:29:07;4.57;;;3.80;;
20012;SDS011;76844;42.852;23.042;2024-03-23T14:31:37;5.40;;;3.70;;
20012;SDS011;76844;42.852;23.042;2024-03-23T14:34:04;6.78;;;3.55;;
20012;SDS011;76844;42.852;23.042;2024-03-23T14:36:32;5.95;;;3.88;;
20012;SDS011;76844;42.852;23.042;2024-03-23T14:39:00;6.63;;;4.18;;
20012;SDS011;76844;42.852;23.042;2024-03-23T14:41:32;5.80;;;3.70;;
20012;SDS011;76844;42.852;23.042;2024-03-23T14:43:59;7.45;;;4.20;;
20012;SDS011;76844;42.852;23.042;2024-03-23T14:46:28;6.60;;;3.92;;
20012;SDS011;76844;42.852;23.042;2024-03-23T14:48:55;6.63;;;4.18;;
20012;SDS011;76844;42.852;23.042;2024-03-23T14:51:26;7.93;;;4.22;;
20012;SDS011;76844;42.852;23.042;2024-03-23T14:53:54;7.47;;;4.15;;
20012;SDS011;76844;42.852;23.042;2024-03-23T14:56:22;5.60;;;4.45;;
20012;SDS011;76844;42.852;23.042;2024-03-23T14:58:53;10.25;;;4.40;;
20012;SDS011;76844;42.852;23.042;2024-03-23T15:01:22;8.27;;;4.10;;
20012;SDS011;76844;42.852;23.042;2024-03-23T15:03:50;8.05;;;3.80;;
20012;SDS011;76844;42.852;23.042;2024-03-23T15:06:19;5.07;;;3.72;;
20012;SDS011;76844;42.852;23.042;2024-03-23T15:08:48;7.28;;;4.22;;
20012;SDS011;76844;42.852;23.042;2024-03-23T15:11:20;7.85;;;4.32;;
20012;SDS011;76844;42.852;23.042;2024-03-23T15:13:49;5.30;;;3.70;;
20012;SDS011;76844;42.852;23.042;2024-03-23T15:16:19;5.85;;;4.00;;
20012;SDS011;76844;42.852;23.042;2024-03-23T15:18:47;8.93;;;4.00;;
20012;SDS011;76844;42.852;23.042;2024-03-23T15:21:15;7.07;;;3.88;;
20012;SDS011;76844;42.852;23.042;2024-03-23T15:23:47;7.75;;;3.63;;
20012;SDS011;76844;42.852;23.042;2024-03-23T15:26:14;9.30;;;4.05;;
20012;SDS011;76844;42.852;23.042;2024-03-23T15:28:47;7.88;;;4.35;;
20012;SDS011;76844;42.852;23.042;2024-03-23T15:31:38;7.25;;;4.15;;
20012;SDS011;76844;42.852;23.042;2024-03-23T15:34:06;5.93;;;4.50;;
20012;SDS011;76844;42.852;23.042;2024-03-23T15:36:36;9.52;;;4.20;;